Time;durP1;ratioP1;P1;durP2;ratioP2;P2;SDS_P1;SDS_P2;PMS_P1;PMS_P2;Temp;Humidity;BMP_temperature;BMP_pressure;BME280_temperature;BME280_humidity;BME280_pressure;Samples;Min_cycle;Max_cycle;Signal;HPM_P1;HPM_P2
2022/03/08 03:45:52;;;;;;;;;;;3.10;69.80;;;;;;6262542;22;19960;-77
2022/03/08 03:48:18;;;;;;;;;;;3.10;69.90;;;;;;6315970;22;19926;-80
2022/03/08 03:50:44;;;;;;;;;;;3.10;70.00;;;;;;6264952;22;19918;-78
2022/03/08 03:53:09;;;;;;;;;;;3.00;70.10;;;;;;6316295;22;19911;-78
2022/03/08 03:55:35;;;;;;;;;;;3.00;70.30;;;;;;6264391;22;19903;-78
2022/03/08 03:58:00;;;;;;;;;;;2.90;70.40;;;;;;6316126;22;19922;-77
2022/03/08 04:00:27;;;;;;;;;;;2.90;70.50;;;;;;6290116;22;19915;-77
2022/03/08 04:02:53;;;;;;;;;;;2.80;70.80;;;;;;6316272;22;19899;-78
2022/03/08 04:05:19;;;;;;;;;;;2.80;70.80;;;;;;6313105;22;19950;-78
2022/03/08 04:07:45;;;;;;;;;;;2.70;71.10;;;;;;6318025;22;19899;-78
2022/03/08 04:10:11;;;;;;;;;;;2.70;71.20;;;;;;6291990;22;20111;-78
2022/03/08 04:12:37;;;;;;;;;;;2.70;71.20;;;;;;6318242;22;19961;-78
2022/03/08 04:15:03;;;;;;;;;;;2.60;71.30;;;;;;6319336;22;20135;-78
2022/03/08 04:17:29;;;;;;;;;;;2.60;71.40;;;;;;6319353;22;19918;-77
2022/03/08 04:19:55;;;;;;;;;;;2.60;71.40;;;;;;6317676;22;19899;-77
2022/03/08 04:22:21;;;;;;;;;;;2.50;72.20;;;;;;6292066;22;19903;-77
2022/03/08 04:24:46;;;;;;;;;;;2.50;71.50;;;;;;6292089;22;20121;-78
2022/03/08 04:27:12;;;;;;;;;;;2.50;71.50;;;;;;6292187;22;19903;-78
2022/03/08 04:29:38;;;;;;;;;;;2.50;71.50;;;;;;6292282;22;20129;-78
2022/03/08 04:32:04;;;;;;;;;;;2.40;71.70;;;;;;6317838;22;19899;-79
2022/03/08 04:34:30;;;;;;;;;;;2.40;71.80;;;;;;6318052;22;19895;-78
2022/03/08 04:36:56;;;;;;;;;;;2.40;72.00;;;;;;6317964;22;19944;-78
2022/03/08 04:39:21;;;;;;;;;;;2.40;72.00;;;;;;6292265;22;19903;-78
2022/03/08 04:41:47;;;;;;;;;;;2.30;72.10;;;;;;6291822;22;19903;-78
2022/03/08 04:44:13;;;;;;;;;;;2.20;72.40;;;;;;6292045;22;19899;-79
2022/03/08 04:46:39;;;;;;;;;;;2.20;72.50;;;;;;6291359;22;19911;-79
2022/03/08 04:49:05;;;;;;;;;;;2.20;72.60;;;;;;6266437;22;20136;-79
2022/03/08 04:51:31;;;;;;;;;;;2.20;72.70;;;;;;6291726;22;19903;-78
2022/03/08 04:53:56;;;;;;;;;;;2.20;72.70;;;;;;6266192;22;19910;-79
2022/03/08 04:56:22;;;;;;;;;;;2.10;72.90;;;;;;6266146;22;19903;-78
2022/03/08 04:58:48;;;;;;;;;;;2.10;73.20;;;;;;6290367;22;19914;-77
2022/03/08 05:01:15;;;;;;;;;;;2.10;73.10;;;;;;6288749;22;20194;-79
2022/03/08 05:03:41;;;;;;;;;;;2.10;72.90;;;;;;6317605;22;19902;-78
2022/03/08 05:06:06;;;;;;;;;;;2.10;73.20;;;;;;6265984;22;19909;-78
2022/03/08 05:08:32;;;;;;;;;;;2.10;73.50;;;;;;6266138;22;19903;-78
2022/03/08 05:10:58;;;;;;;;;;;2.00;73.60;;;;;;6317480;22;19922;-79
2022/03/08 05:13:24;;;;;;;;;;;2.00;73.50;;;;;;6291884;22;19903;-79
2022/03/08 05:15:50;;;;;;;;;;;2.00;73.60;;;;;;6291127;22;20190;-79
2022/03/08 05:18:16;;;;;;;;;;;2.00;73.50;;;;;;6291799;22;19903;-78
2022/03/08 05:20:42;;;;;;;;;;;2.00;73.50;;;;;;6317704;22;19915;-80
2022/03/08 05:23:08;;;;;;;;;;;2.00;73.70;;;;;;6318841;22;20423;-79
2022/03/08 05:25:34;;;;;;;;;;;2.00;73.70;;;;;;6318650;22;19921;-78
2022/03/08 05:27:59;;;;;;;;;;;2.00;73.80;;;;;;6317184;22;19907;-78
2022/03/08 05:30:25;;;;;;;;;;;2.00;74.10;;;;;;6265606;22;19902;-78
2022/03/08 05:32:51;;;;;;;;;;;2.00;74.20;;;;;;6291133;22;19902;-78
2022/03/08 05:35:16;;;;;;;;;;;2.00;74.10;;;;;;6317000;22;19921;-79
2022/03/08 05:37:42;;;;;;;;;;;2.00;74.00;;;;;;6291307;22;19902;-79
2022/03/08 05:40:09;;;;;;;;;;;2.00;74.00;;;;;;6291044;22;19907;-79
2022/03/08 05:42:34;;;;;;;;;;;2.00;74.10;;;;;;6316570;22;19907;-77
2022/03/08 05:45:00;;;;;;;;;;;2.00;74.30;;;;;;6291136;22;19934;-77
2022/03/08 05:47:26;;;;;;;;;;;2.10;74.30;;;;;;6317133;22;19977;-78
2022/03/08 05:49:51;;;;;;;;;;;2.10;74.10;;;;;;6265663;22;20401;-77
2022/03/08 05:52:17;;;;;;;;;;;2.10;74.20;;;;;;6265718;22;20005;-78
2022/03/08 05:54:43;;;;;;;;;;;2.10;74.10;;;;;;6291075;22;19903;-78
2022/03/08 05:57:08;;;;;;;;;;;2.10;74.00;;;;;;6291021;22;19909;-78
2022/03/08 05:59:34;;;;;;;;;;;2.20;74.00;;;;;;6316527;22;19902;-79
2022/03/08 06:02:00;;;;;;;;;;;2.20;73.90;;;;;;6316662;22;19902;-78
2022/03/08 06:04:25;;;;;;;;;;;2.30;73.90;;;;;;6286849;22;20158;-79
2022/03/08 06:06:52;;;;;;;;;;;2.30;73.90;;;;;;6316579;22;20437;-79
2022/03/08 06:09:18;;;;;;;;;;;2.30;73.80;;;;;;6290912;22;19918;-79
2022/03/08 06:11:44;;;;;;;;;;;2.40;73.50;;;;;;6265384;22;19924;-78
2022/03/08 06:14:09;;;;;;;;;;;2.50;73.30;;;;;;6290687;22;19907;-79
2022/03/08 06:16:35;;;;;;;;;;;2.60;73.00;;;;;;6265163;22;19903;-79
2022/03/08 06:19:01;;;;;;;;;;;2.70;72.70;;;;;;6290652;22;19907;-78
2022/03/08 06:21:26;;;;;;;;;;;2.70;72.50;;;;;;6290879;22;19921;-79
2022/03/08 06:23:52;;;;;;;;;;;2.70;72.40;;;;;;6290938;22;19909;-79
2022/03/08 06:26:18;;;;;;;;;;;2.80;72.10;;;;;;6265293;22;19903;-79
2022/03/08 06:28:44;;;;;;;;;;;2.90;71.80;;;;;;6290705;22;19913;-79
2022/03/08 06:31:10;;;;;;;;;;;3.00;71.40;;;;;;6290996;22;20091;-79
2022/03/08 06:33:35;;;;;;;;;;;3.00;70.90;;;;;;6316771;22;19918;-79
2022/03/08 06:36:01;;;;;;;;;;;3.00;70.90;;;;;;6290964;22;19903;-79
2022/03/08 06:38:27;;;;;;;;;;;3.10;70.70;;;;;;6316626;22;19898;-77
2022/03/08 06:40:52;;;;;;;;;;;3.20;70.30;;;;;;6290637;22;19910;-78
2022/03/08 06:43:19;;;;;;;;;;;3.20;69.80;;;;;;6290463;22;19905;-79
2022/03/08 06:45:44;;;;;;;;;;;3.30;69.80;;;;;;6290200;22;19903;-79
2022/03/08 06:48:11;;;;;;;;;;;3.30;69.40;;;;;;6316480;22;19940;-79
2022/03/08 06:50:36;;;;;;;;;;;3.40;69.50;;;;;;6291329;22;19899;-79
2022/03/08 06:53:02;;;;;;;;;;;3.50;69.50;;;;;;6316716;22;19910;-79
2022/03/08 06:55:28;;;;;;;;;;;3.60;68.90;;;;;;6291161;22;19905;-79
2022/03/08 06:57:53;;;;;;;;;;;3.70;68.60;;;;;;6316376;22;19934;-77
2022/03/08 07:00:20;;;;;;;;;;;3.70;68.30;;;;;;6265382;22;20133;-78
2022/03/08 07:02:45;;;;;;;;;;;3.80;68.50;;;;;;6290888;22;19907;-78
2022/03/08 07:05:11;;;;;;;;;;;4.00;68.10;;;;;;6300231;22;19909;-78
2022/03/08 07:07:38;;;;;;;;;;;4.10;67.50;;;;;;6303928;22;20190;-78
2022/03/08 07:10:05;;;;;;;;;;;4.10;67.10;;;;;;6294576;22;20079;-78
2022/03/08 07:12:30;;;;;;;;;;;4.20;67.20;;;;;;6320956;22;19909;-79
2022/03/08 07:14:56;;;;;;;;;;;4.30;66.30;;;;;;6269592;22;19903;-79
2022/03/08 07:17:22;;;;;;;;;;;4.40;66.10;;;;;;6295360;22;19894;-79
2022/03/08 07:19:47;;;;;;;;;;;4.40;66.10;;;;;;6294727;22;19957;-79
2022/03/08 07:22:15;;;;;;;;;;;4.50;65.60;;;;;;6268930;22;19937;-78
2022/03/08 07:24:41;;;;;;;;;;;4.60;66.20;;;;;;6318463;22;19899;-78
2022/03/08 07:27:08;;;;;;;;;;;4.80;65.10;;;;;;6314961;22;19994;-79
2022/03/08 07:29:34;;;;;;;;;;;4.80;64.70;;;;;;6290537;22;19903;-78
2022/03/08 07:32:00;;;;;;;;;;;4.80;64.00;;;;;;6264828;22;19948;-78
2022/03/08 07:34:25;;;;;;;;;;;4.90;64.40;;;;;;6264021;22;20161;-79
2022/03/08 07:36:51;;;;;;;;;;;4.90;64.40;;;;;;6314980;22;20129;-79
2022/03/08 07:39:17;;;;;;;;;;;5.00;63.90;;;;;;6288641;22;19921;-78
2022/03/08 07:41:42;;;;;;;;;;;4.90;63.90;;;;;;6316688;22;19902;-78
2022/03/08 07:44:08;;;;;;;;;;;4.90;64.00;;;;;;6289278;22;20125;-78
2022/03/08 07:46:34;;;;;;;;;;;4.90;64.60;;;;;;6288694;22;19911;-78
2022/03/08 07:49:00;;;;;;;;;;;4.90;63.90;;;;;;6289020;22;19953;-79
2022/03/08 07:51:26;;;;;;;;;;;5.00;64.00;;;;;;6289087;22;20214;-78
2022/03/08 07:53:52;;;;;;;;;;;5.10;63.70;;;;;;6264058;22;19903;-78
2022/03/08 07:56:17;;;;;;;;;;;5.20;63.70;;;;;;6289620;22;19949;-78
2022/03/08 07:58:43;;;;;;;;;;;5.30;63.40;;;;;;6314834;22;20221;-78
2022/03/08 08:01:09;;;;;;;;;;;5.40;63.00;;;;;;6289137;22;20075;-78
2022/03/08 08:03:34;;;;;;;;;;;5.50;62.90;;;;;;6316561;22;19906;-78
2022/03/08 08:06:02;;;;;;;;;;;5.50;62.60;;;;;;6264267;22;19925;-78
2022/03/08 08:08:27;;;;;;;;;;;5.60;62.50;;;;;;6289942;22;20282;-78
2022/03/08 08:10:53;;;;;;;;;;;5.60;61.90;;;;;;6316984;22;19903;-78
2022/03/08 08:13:19;;;;;;;;;;;5.80;61.90;;;;;;6315721;22;19899;-79
2022/03/08 08:15:44;;;;;;;;;;;5.90;61.70;;;;;;6315069;22;19899;-79
2022/03/08 08:18:10;;;;;;;;;;;5.90;60.90;;;;;;6288590;22;19910;-79
2022/03/08 08:20:36;;;;;;;;;;;5.90;61.50;;;;;;6288550;22;19948;-79
2022/03/08 08:23:02;;;;;;;;;;;6.00;61.40;;;;;;6263045;22;19911;-79
2022/03/08 08:25:27;;;;;;;;;;;6.00;61.50;;;;;;6288556;22;19910;-79
2022/03/08 08:27:53;;;;;;;;;;;6.10;61.70;;;;;;6288474;22;19965;-79
2022/03/08 08:30:19;;;;;;;;;;;6.20;61.40;;;;;;6314427;22;20202;-78
2022/03/08 08:32:44;;;;;;;;;;;6.30;61.10;;;;;;6262947;22;19907;-79
2022/03/08 08:35:12;;;;;;;;;;;6.40;61.00;;;;;;6288606;22;19903;-78
2022/03/08 08:37:38;;;;;;;;;;;6.50;60.80;;;;;;6264116;22;19941;-79
2022/03/08 08:40:04;;;;;;;;;;;6.60;60.70;;;;;;6288197;22;19930;-78
2022/03/08 08:42:30;;;;;;;;;;;6.80;61.30;;;;;;6288620;22;19914;-78
2022/03/08 08:44:55;;;;;;;;;;;7.00;59.70;;;;;;6315708;22;19954;-78
2022/03/08 08:47:21;;;;;;;;;;;7.10;59.50;;;;;;6313801;22;19914;-77
2022/03/08 08:49:47;;;;;;;;;;;7.10;59.20;;;;;;6288710;22;19906;-78
2022/03/08 08:52:13;;;;;;;;;;;7.30;59.30;;;;;;6315458;22;19911;-79
2022/03/08 08:54:38;;;;;;;;;;;7.40;58.70;;;;;;6316139;22;19940;-79
2022/03/08 08:57:04;;;;;;;;;;;7.40;58.20;;;;;;6289966;22;19911;-79
2022/03/08 08:59:30;;;;;;;;;;;7.40;58.50;;;;;;6264624;22;19963;-78
2022/03/08 09:01:55;;;;;;;;;;;7.40;58.00;;;;;;6264473;22;19926;-79
2022/03/08 09:04:21;;;;;;;;;;;7.50;57.70;;;;;;6317554;22;19939;-79
2022/03/08 09:06:47;;;;;;;;;;;7.70;57.80;;;;;;6290352;22;20190;-79
2022/03/08 09:09:12;;;;;;;;;;;7.70;57.50;;;;;;6316072;22;19898;-79
2022/03/08 09:11:38;;;;;;;;;;;7.80;56.50;;;;;;6316473;22;19903;-78
2022/03/08 09:14:04;;;;;;;;;;;7.90;56.90;;;;;;6290538;22;19944;-78
2022/03/08 09:16:30;;;;;;;;;;;8.00;56.80;;;;;;6290606;22;19932;-79
2022/03/08 09:18:56;;;;;;;;;;;7.90;56.10;;;;;;6290862;22;19980;-79
2022/03/08 09:21:22;;;;;;;;;;;7.90;56.40;;;;;;6316740;22;20164;-79
2022/03/08 09:23:47;;;;;;;;;;;8.10;56.40;;;;;;6290771;22;19906;-79
2022/03/08 09:26:13;;;;;;;;;;;8.20;55.70;;;;;;6290963;22;19950;-79
2022/03/08 09:28:39;;;;;;;;;;;8.30;56.40;;;;;;6316425;22;19899;-79
2022/03/08 09:31:05;;;;;;;;;;;8.40;55.70;;;;;;6290838;22;19894;-79
2022/03/08 09:33:30;;;;;;;;;;;8.60;55.90;;;;;;6290247;22;19937;-79
2022/03/08 09:35:56;;;;;;;;;;;8.70;55.20;;;;;;6318005;22;19906;-79
2022/03/08 09:38:22;;;;;;;;;;;8.70;55.70;;;;;;6290606;22;20240;-79
2022/03/08 09:40:47;;;;;;;;;;;8.90;55.50;;;;;;6316357;22;19968;-79
2022/03/08 09:43:14;;;;;;;;;;;9.00;54.80;;;;;;6316729;22;19940;-79
2022/03/08 09:45:39;;;;;;;;;;;9.20;54.30;;;;;;6290243;22;19963;-78
2022/03/08 09:48:05;;;;;;;;;;;9.30;54.60;;;;;;6289473;22;19911;-79
2022/03/08 09:50:31;;;;;;;;;;;9.40;52.90;;;;;;6315631;22;19910;-79
2022/03/08 09:52:57;;;;;;;;;;;8.90;53.80;;;;;;6290058;22;19907;-79
2022/03/08 09:55:25;;;;;;;;;;;8.70;54.40;;;;;;6290551;22;19895;-79
2022/03/08 09:57:51;;;;;;;;;;;8.80;55.40;;;;;;6290661;22;19903;-78
2022/03/08 10:00:17;;;;;;;;;;;8.80;55.00;;;;;;6316214;22;20194;-79
2022/03/08 10:02:43;;;;;;;;;;;9.00;54.90;;;;;;6316043;22;19960;-79
2022/03/08 10:05:09;;;;;;;;;;;9.10;54.30;;;;;;6290337;22;20186;-79
2022/03/08 10:07:35;;;;;;;;;;;9.30;54.00;;;;;;6264860;22;19909;-79
2022/03/08 10:10:00;;;;;;;;;;;9.50;53.90;;;;;;6290517;22;19906;-79
2022/03/08 10:12:27;;;;;;;;;;;9.70;53.10;;;;;;6315973;22;19898;-79
2022/03/08 10:14:53;;;;;;;;;;;9.70;52.70;;;;;;6315696;22;19948;-79
2022/03/08 10:17:36;;;;;;;;;;;9.60;53.40;;;;;;6317030;22;20101;-80
2022/03/08 10:20:03;;;;;;;;;;;9.80;53.50;;;;;;6316036;22;19910;-80
2022/03/08 10:22:30;;;;;;;;;;;9.80;52.30;;;;;;6315841;22;19954;-80
2022/03/08 10:25:10;;;;;;;;;;;10.00;52.60;;;;;;6289251;22;19922;-79
2022/03/08 10:27:36;;;;;;;;;;;10.20;52.00;;;;;;6315437;22;19899;-80
2022/03/08 10:30:04;;;;;;;;;;;10.40;51.30;;;;;;6288675;22;19982;-80
2022/03/08 10:32:35;;;;;;;;;;;10.30;50.40;;;;;;6315349;22;19899;-80
2022/03/08 10:35:01;;;;;;;;;;;10.40;51.20;;;;;;6315191;22;19899;-80
2022/03/08 10:37:35;;;;;;;;;;;10.50;50.40;;;;;;6315034;22;19910;-80
2022/03/08 10:40:02;;;;;;;;;;;10.60;51.50;;;;;;6315450;22;20471;-81
2022/03/08 10:42:30;;;;;;;;;;;10.80;49.80;;;;;;6290031;22;19952;-79
2022/03/08 10:45:04;;;;;;;;;;;11.00;49.00;;;;;;6289773;22;20129;-79
2022/03/08 10:47:46;;;;;;;;;;;11.30;47.60;;;;;;6288608;22;20106;-79
2022/03/08 10:50:14;;;;;;;;;;;11.30;47.90;;;;;;6289213;22;19938;-79
2022/03/08 10:52:41;;;;;;;;;;;11.20;47.70;;;;;;6315168;22;20375;-79
2022/03/08 10:55:12;;;;;;;;;;;11.00;48.50;;;;;;6315158;22;19950;-79
2022/03/08 10:57:37;;;;;;;;;;;10.70;49.00;;;;;;6315475;22;19899;-79
2022/03/08 11:00:09;;;;;;;;;;;10.80;49.90;;;;;;6289690;22;20020;-80
2022/03/08 11:02:36;;;;;;;;;;;10.70;49.00;;;;;;6265306;22;19911;-81
2022/03/08 11:05:09;;;;;;;;;;;10.40;48.80;;;;;;6289626;22;19903;-79
2022/03/08 11:07:38;;;;;;;;;;;10.20;49.10;;;;;;6314830;22;19898;-80
2022/03/08 11:10:04;;;;;;;;;;;10.20;49.20;;;;;;6263615;22;19918;-79
2022/03/08 11:12:30;;;;;;;;;;;10.30;48.70;;;;;;6315018;22;19907;-80
2022/03/08 11:14:55;;;;;;;;;;;10.40;49.30;;;;;;6314971;22;19899;-80
2022/03/08 11:17:23;;;;;;;;;;;10.80;48.90;;;;;;6263790;22;19902;-80
2022/03/08 11:19:49;;;;;;;;;;;11.00;47.50;;;;;;6315986;22;19917;-80
2022/03/08 11:22:15;;;;;;;;;;;10.90;45.90;;;;;;6314776;22;19911;-80
2022/03/08 11:24:42;;;;;;;;;;;10.60;46.20;;;;;;6289157;22;19922;-80
2022/03/08 11:27:08;;;;;;;;;;;10.40;46.60;;;;;;6317501;22;19925;-80
2022/03/08 11:29:35;;;;;;;;;;;10.10;46.40;;;;;;6290082;22;20103;-80
2022/03/08 11:32:01;;;;;;;;;;;10.00;46.50;;;;;;6315415;22;20552;-80
2022/03/08 11:34:33;;;;;;;;;;;9.90;46.80;;;;;;6289570;22;19936;-80
2022/03/08 11:37:07;;;;;;;;;;;9.70;46.90;;;;;;6289319;22;20106;-80
2022/03/08 11:39:39;;;;;;;;;;;9.60;47.20;;;;;;6289752;22;19960;-80
2022/03/08 11:42:17;;;;;;;;;;;9.60;47.00;;;;;;6291275;22;19903;-80
2022/03/08 11:45:03;;;;;;;;;;;9.90;47.20;;;;;;6289781;22;19906;-80
2022/03/08 11:47:36;;;;;;;;;;;10.20;45.20;;;;;;6287625;22;19906;-80
2022/03/08 11:50:03;;;;;;;;;;;10.40;45.10;;;;;;6289243;22;19918;-79
2022/03/08 11:52:30;;;;;;;;;;;10.50;45.50;;;;;;6315450;22;19954;-79
2022/03/08 11:55:08;;;;;;;;;;;10.50;45.30;;;;;;6289776;22;19906;-80
2022/03/08 11:57:49;;;;;;;;;;;10.40;45.00;;;;;;6315592;22;19898;-80
2022/03/08 12:00:18;;;;;;;;;;;10.50;45.20;;;;;;6289443;22;19906;-80
2022/03/08 12:02:44;;;;;;;;;;;10.60;45.10;;;;;;6289263;22;19899;-81
2022/03/08 12:05:30;;;;;;;;;;;10.70;45.10;;;;;;6289436;22;19899;-81
2022/03/08 12:07:55;;;;;;;;;;;10.80;45.80;;;;;;6315159;22;19937;-80
2022/03/08 12:10:28;;;;;;;;;;;11.10;45.40;;;;;;6315406;22;20250;-81
2022/03/08 12:12:54;;;;;;;;;;;11.20;44.20;;;;;;6289488;22;20218;-81
2022/03/08 12:15:21;;;;;;;;;;;10.90;45.10;;;;;;6289453;22;20183;-81
2022/03/08 12:18:06;;;;;;;;;;;10.60;44.30;;;;;;6315102;22;20111;-81
2022/03/08 12:20:31;;;;;;;;;;;10.40;45.20;;;;;;6289206;22;19909;-81
2022/03/08 12:23:07;;;;;;;;;;;10.30;44.70;;;;;;6315335;22;20189;-81
2022/03/08 12:25:34;;;;;;;;;;;10.40;45.50;;;;;;6290411;22;19906;-81
2022/03/08 12:27:59;;;;;;;;;;;10.70;44.20;;;;;;6317460;22;19907;-81
2022/03/08 12:30:38;;;;;;;;;;;10.90;45.10;;;;;;6291404;22;19940;-81
2022/03/08 12:33:04;;;;;;;;;;;11.30;44.00;;;;;;6291330;22;19950;-81
2022/03/08 12:35:29;;;;;;;;;;;11.60;43.00;;;;;;6291522;22;19902;-81
2022/03/08 12:37:57;;;;;;;;;;;11.80;43.60;;;;;;6291358;22;19903;-81
2022/03/08 12:40:24;;;;;;;;;;;11.90;43.40;;;;;;6317159;22;20190;-81
2022/03/08 12:42:58;;;;;;;;;;;11.80;42.60;;;;;;6291396;22;20101;-81
2022/03/08 12:45:28;;;;;;;;;;;11.30;43.00;;;;;;6291424;22;19899;-81
2022/03/08 12:47:54;;;;;;;;;;;11.00;43.30;;;;;;6317473;22;19906;-81
2022/03/08 12:50:39;;;;;;;;;;;10.80;42.80;;;;;;6290921;22;19923;-81
2022/03/08 12:53:09;;;;;;;;;;;10.80;43.90;;;;;;6317045;22;19898;-81
2022/03/08 12:55:39;;;;;;;;;;;10.90;43.60;;;;;;6317253;22;19964;-81
2022/03/08 12:58:09;;;;;;;;;;;11.10;43.60;;;;;;6291236;22;20013;-81
2022/03/08 13:00:36;;;;;;;;;;;11.20;43.30;;;;;;6317283;22;19903;-81
2022/03/08 13:03:03;;;;;;;;;;;11.10;42.60;;;;;;6291128;22;20079;-81
2022/03/08 13:05:28;;;;;;;;;;;11.00;43.30;;;;;;6291236;22;20194;-81
2022/03/08 13:07:55;;;;;;;;;;;11.00;42.20;;;;;;6290941;22;19905;-81
2022/03/08 13:10:21;;;;;;;;;;;11.00;43.10;;;;;;6317356;22;19899;-81
2022/03/08 13:12:51;;;;;;;;;;;11.00;43.00;;;;;;6291097;22;19899;-80
2022/03/08 13:15:17;;;;;;;;;;;11.00;43.50;;;;;;6291459;22;19905;-81
2022/03/08 13:17:44;;;;;;;;;;;11.00;42.20;;;;;;6264878;22;20339;-81
2022/03/08 13:20:27;;;;;;;;;;;10.90;43.20;;;;;;6317296;22;19903;-81
2022/03/08 13:22:53;;;;;;;;;;;11.00;42.70;;;;;;6290467;22;19950;-81
2022/03/08 13:25:19;;;;;;;;;;;10.80;42.80;;;;;;6290577;22;19895;-81
2022/03/08 13:27:48;;;;;;;;;;;10.80;42.90;;;;;;6316984;22;20138;-81
2022/03/08 13:30:19;;;;;;;;;;;10.90;42.10;;;;;;6265118;22;19929;-81
2022/03/08 13:32:45;;;;;;;;;;;11.00;42.40;;;;;;6312128;22;19958;-82
2022/03/08 13:35:11;;;;;;;;;;;11.10;42.20;;;;;;6265324;22;19951;-81
2022/03/08 13:37:47;;;;;;;;;;;11.20;42.70;;;;;;6265278;22;19912;-81
2022/03/08 13:40:26;;;;;;;;;;;11.30;42.30;;;;;;6316541;22;20003;-81
2022/03/08 13:42:51;;;;;;;;;;;11.30;41.90;;;;;;6291001;22;19940;-82
2022/03/08 13:45:17;;;;;;;;;;;11.20;41.70;;;;;;6290416;22;19907;-81
2022/03/08 13:47:43;;;;;;;;;;;11.20;42.50;;;;;;6316210;22;19929;-81
2022/03/08 13:50:08;;;;;;;;;;;11.20;42.10;;;;;;6290660;22;19898;-81
2022/03/08 13:52:34;;;;;;;;;;;11.10;42.20;;;;;;6290764;22;19945;-81
2022/03/08 13:55:00;;;;;;;;;;;11.30;42.10;;;;;;6264818;22;19903;-81
2022/03/08 13:57:26;;;;;;;;;;;11.40;41.30;;;;;;6265368;22;19910;-81
2022/03/08 13:59:52;;;;;;;;;;;11.40;41.20;;;;;;6290180;22;19914;-82
2022/03/08 14:02:18;;;;;;;;;;;11.40;41.40;;;;;;6290721;22;19902;-81
2022/03/08 14:04:44;;;;;;;;;;;11.40;41.70;;;;;;6290783;22;19898;-82
2022/03/08 14:07:09;;;;;;;;;;;11.50;41.70;;;;;;6290491;22;19903;-82
2022/03/08 14:09:35;;;;;;;;;;;11.70;42.20;;;;;;6290116;22;20093;-81
2022/03/08 14:12:02;;;;;;;;;;;11.80;41.40;;;;;;6290487;22;19960;-81
2022/03/08 14:14:29;;;;;;;;;;;11.90;41.40;;;;;;6289415;22;19903;-81
2022/03/08 14:16:55;;;;;;;;;;;11.90;40.10;;;;;;6315589;22;19903;-81
2022/03/08 14:19:37;;;;;;;;;;;11.80;41.30;;;;;;6289735;22;19937;-81
2022/03/08 14:22:06;;;;;;;;;;;11.90;41.30;;;;;;6290121;22;19963;-81
2022/03/08 14:24:32;;;;;;;;;;;12.00;40.20;;;;;;6290371;22;20072;-81
2022/03/08 14:27:00;;;;;;;;;;;12.00;41.00;;;;;;6264546;22;19948;-81
2022/03/08 14:29:25;;;;;;;;;;;12.00;40.50;;;;;;6316811;22;19898;-81
2022/03/08 14:31:51;;;;;;;;;;;11.80;40.00;;;;;;6316399;22;19944;-81
2022/03/08 14:34:18;;;;;;;;;;;11.70;40.90;;;;;;6290272;22;19946;-81
2022/03/08 14:36:54;;;;;;;;;;;11.80;41.00;;;;;;6290399;22;19924;-81
2022/03/08 14:39:23;;;;;;;;;;;11.90;41.40;;;;;;6315968;22;19964;-81
2022/03/08 14:42:04;;;;;;;;;;;11.90;40.80;;;;;;6290091;22;19905;-81
2022/03/08 14:44:59;;;;;;;;;;;11.80;40.50;;;;;;6290499;22;19914;-81
2022/03/08 14:47:26;;;;;;;;;;;11.70;41.50;;;;;;6253073;22;20207;-81
2022/03/08 14:49:53;;;;;;;;;;;11.70;42.20;;;;;;6226887;23;20076;-82
2022/03/08 14:52:25;;;;;;;;;;;11.80;42.10;;;;;;6202317;23;20026;-82
2022/03/08 14:54:52;;;;;;;;;;;11.70;42.30;;;;;;6227898;23;19922;-80
2022/03/08 14:57:18;;;;;;;;;;;11.60;42.30;;;;;;6228150;23;19925;-81
2022/03/08 14:59:44;;;;;;;;;;;11.50;42.50;;;;;;6202655;23;19909;-81
2022/03/08 15:02:10;;;;;;;;;;;11.40;42.50;;;;;;6203353;23;19945;-81
2022/03/08 15:04:35;;;;;;;;;;;11.30;42.00;;;;;;6201970;23;19908;-81
2022/03/08 15:07:01;;;;;;;;;;;11.10;42.10;;;;;;6202208;23;19908;-81
2022/03/08 15:09:27;;;;;;;;;;;11.00;42.10;;;;;;6252343;23;20102;-81
2022/03/08 15:11:53;;;;;;;;;;;11.10;43.00;;;;;;6202077;23;20473;-81
2022/03/08 15:14:18;;;;;;;;;;;11.40;42.40;;;;;;6202430;23;19907;-81
2022/03/08 15:16:44;;;;;;;;;;;11.50;41.60;;;;;;6201934;23;19915;-80
2022/03/08 15:19:10;;;;;;;;;;;11.50;42.10;;;;;;6177403;23;20248;-80
2022/03/08 15:21:38;;;;;;;;;;;11.60;41.20;;;;;;6202437;23;19911;-81
2022/03/08 15:24:04;;;;;;;;;;;11.50;40.50;;;;;;6279302;22;19952;-81
2022/03/08 15:26:31;;;;;;;;;;;11.50;41.30;;;;;;6289583;22;19899;-81
2022/03/08 15:28:57;;;;;;;;;;;11.60;41.00;;;;;;6315646;22;19899;-80
2022/03/08 15:31:23;;;;;;;;;;;11.70;40.40;;;;;;6289739;22;19952;-81
2022/03/08 15:33:49;;;;;;;;;;;11.70;41.00;;;;;;6289758;22;19902;-80
2022/03/08 15:36:15;;;;;;;;;;;11.70;40.20;;;;;;6315477;22;19898;-80
2022/03/08 15:38:41;;;;;;;;;;;11.50;39.50;;;;;;6315421;22;19899;-80
2022/03/08 15:41:07;;;;;;;;;;;11.40;39.50;;;;;;6289698;22;19899;-81
2022/03/08 15:43:34;;;;;;;;;;;11.40;40.40;;;;;;6289558;22;20269;-81
2022/03/08 15:46:00;;;;;;;;;;;11.50;40.00;;;;;;6289097;22;20216;-81
2022/03/08 15:48:25;;;;;;;;;;;11.50;40.00;;;;;;6289723;22;19899;-81
2022/03/08 15:50:51;;;;;;;;;;;11.50;40.00;;;;;;6289524;22;19911;-80
2022/03/08 15:53:19;;;;;;;;;;;11.50;39.20;;;;;;6314880;22;19906;-81
2022/03/08 15:55:45;;;;;;;;;;;11.50;39.60;;;;;;6314502;22;19964;-81
2022/03/08 15:58:10;;;;;;;;;;;11.50;39.00;;;;;;6263692;22;20000;-81
2022/03/08 16:00:36;;;;;;;;;;;11.40;39.20;;;;;;6315662;22;19902;-81
2022/03/08 16:03:02;;;;;;;;;;;11.20;39.60;;;;;;6291128;22;19910;-81
2022/03/08 16:05:28;;;;;;;;;;;10.80;40.30;;;;;;6291090;22;19906;-80
2022/03/08 16:07:53;;;;;;;;;;;10.40;40.80;;;;;;6291229;22;19940;-80
2022/03/08 16:10:20;;;;;;;;;;;10.10;41.20;;;;;;6290645;22;19899;-80
2022/03/08 16:12:46;;;;;;;;;;;9.90;41.80;;;;;;6290182;22;20145;-82
2022/03/08 16:15:11;;;;;;;;;;;9.80;42.30;;;;;;6316526;22;19899;-81
2022/03/08 16:17:37;;;;;;;;;;;9.60;42.30;;;;;;6290940;22;19903;-82
2022/03/08 16:20:03;;;;;;;;;;;9.50;42.60;;;;;;6291080;22;19934;-80
2022/03/08 16:22:29;;;;;;;;;;;9.40;42.60;;;;;;6291004;22;19910;-82
2022/03/08 16:24:56;;;;;;;;;;;9.30;43.10;;;;;;6291185;22;19926;-81
2022/03/08 16:27:22;;;;;;;;;;;9.30;43.00;;;;;;6317338;22;19899;-82
2022/03/08 16:29:48;;;;;;;;;;;9.20;43.00;;;;;;6265641;22;19976;-80
2022/03/08 16:32:13;;;;;;;;;;;9.10;43.20;;;;;;6265645;22;19906;-81
2022/03/08 16:34:39;;;;;;;;;;;9.00;43.30;;;;;;6265831;22;19918;-80
2022/03/08 16:37:05;;;;;;;;;;;9.00;43.60;;;;;;6317150;22;19953;-81
2022/03/08 16:39:31;;;;;;;;;;;8.90;44.00;;;;;;6317303;22;19910;-81
2022/03/08 16:41:57;;;;;;;;;;;8.80;44.10;;;;;;6291337;22;19922;-81
2022/03/08 16:44:23;;;;;;;;;;;8.70;44.40;;;;;;6317378;22;19898;-80
2022/03/08 16:46:48;;;;;;;;;;;8.60;44.40;;;;;;6316961;22;19930;-80
2022/03/08 16:49:14;;;;;;;;;;;8.60;44.70;;;;;;6290909;22;20148;-80
2022/03/08 16:51:40;;;;;;;;;;;8.50;45.10;;;;;;6290943;22;19956;-82
2022/03/08 16:54:06;;;;;;;;;;;8.50;45.10;;;;;;6264463;22;19903;-82
2022/03/08 16:56:32;;;;;;;;;;;8.40;45.30;;;;;;6290267;22;20182;-80
2022/03/08 16:59:00;;;;;;;;;;;8.30;45.70;;;;;;6290438;22;19906;-80
2022/03/08 17:01:27;;;;;;;;;;;8.30;45.90;;;;;;6290623;22;19899;-80
2022/03/08 17:03:53;;;;;;;;;;;8.20;45.90;;;;;;6290258;22;19899;-79
2022/03/08 17:06:19;;;;;;;;;;;8.10;46.10;;;;;;6264508;22;19918;-79
2022/03/08 17:08:44;;;;;;;;;;;8.10;46.60;;;;;;6290026;22;19911;-79
2022/03/08 17:11:11;;;;;;;;;;;8.00;46.80;;;;;;6289719;22;19917;-80
2022/03/08 17:13:37;;;;;;;;;;;7.90;47.00;;;;;;6315660;22;20248;-80
2022/03/08 17:16:03;;;;;;;;;;;7.90;47.40;;;;;;6315927;22;19934;-81
2022/03/08 17:18:29;;;;;;;;;;;7.80;47.50;;;;;;6290057;22;19984;-81
2022/03/08 17:20:54;;;;;;;;;;;7.70;48.00;;;;;;6290331;22;20247;-81
2022/03/08 17:23:22;;;;;;;;;;;7.70;48.00;;;;;;6290329;22;19911;-82
2022/03/08 17:25:48;;;;;;;;;;;7.70;48.30;;;;;;6265192;22;19913;-80
2022/03/08 17:28:13;;;;;;;;;;;7.60;48.60;;;;;;6316054;22;19902;-81
2022/03/08 17:30:39;;;;;;;;;;;7.60;48.60;;;;;;6316082;22;19899;-80
2022/03/08 17:33:05;;;;;;;;;;;7.50;49.10;;;;;;6264816;22;20099;-80
2022/03/08 17:35:33;;;;;;;;;;;7.40;49.50;;;;;;6290295;22;19910;-80
2022/03/08 17:37:59;;;;;;;;;;;7.30;49.80;;;;;;6315384;22;20190;-80
2022/03/08 17:40:25;;;;;;;;;;;7.30;49.80;;;;;;6290222;22;19913;-80
2022/03/08 17:42:50;;;;;;;;;;;7.30;49.90;;;;;;6291038;22;19948;-80
2022/03/08 17:45:16;;;;;;;;;;;7.20;50.10;;;;;;6265322;22;19903;-80
2022/03/08 17:47:42;;;;;;;;;;;7.20;50.30;;;;;;6316060;22;19910;-80
2022/03/08 17:50:07;;;;;;;;;;;7.10;50.60;;;;;;6316290;22;19914;-80
2022/03/08 17:52:34;;;;;;;;;;;7.10;50.70;;;;;;6265675;22;19914;-81
2022/03/08 17:55:00;;;;;;;;;;;7.10;50.90;;;;;;6290217;22;20199;-80
2022/03/08 17:57:26;;;;;;;;;;;7.00;51.40;;;;;;6289810;22;19913;-80
2022/03/08 17:59:52;;;;;;;;;;;6.90;51.50;;;;;;6264844;22;19946;-81
2022/03/08 18:02:17;;;;;;;;;;;6.90;51.70;;;;;;6293358;22;19918;-81
2022/03/08 18:04:43;;;;;;;;;;;6.80;52.30;;;;;;6295129;22;19902;-81
2022/03/08 18:07:09;;;;;;;;;;;6.70;52.70;;;;;;6293329;22;19903;-80
2022/03/08 18:09:34;;;;;;;;;;;6.60;52.90;;;;;;6318501;22;19951;-80